createdAt,value
2022-11-03T00:01:02.091Z,93.11
2022-11-03T00:05:24.339Z,93.77
2022-11-03T00:09:29.201Z,94.36
2022-11-03T00:13:31.338Z,94.85
2022-11-03T00:17:33.380Z,95.17
2022-11-03T00:21:35.471Z,95.59
2022-11-03T00:25:37.642Z,95.59
2022-11-03T00:29:39.663Z,95.35
2022-11-03T00:33:42.737Z,95.25
2022-11-03T00:37:44.761Z,95.82
2022-11-03T00:41:46.777Z,96.22
2022-11-03T00:45:49.318Z,96.32
2022-11-03T00:49:51.328Z,96.92
2022-11-03T00:53:58.697Z,97.56
2022-11-03T00:58:00.598Z,98.65
2022-11-03T01:02:02.597Z,99.54
2022-11-03T01:06:28.680Z,99.63
2022-11-03T01:10:30.653Z,100.00
2022-11-03T01:14:40.602Z,100.00
2022-11-03T01:18:42.721Z,100.00
2022-11-03T01:22:44.737Z,100.00
2022-11-03T01:26:47.739Z,100.00
2022-11-03T01:30:49.780Z,100.00
2022-11-03T01:34:51.792Z,100.00
2022-11-03T01:38:55.941Z,100.00
2022-11-03T01:43:15.089Z,99.75
2022-11-03T01:47:29.485Z,99.81
2022-11-03T01:51:34.707Z,100.00
2022-11-03T01:55:39.963Z,100.00
2022-11-03T01:59:43.247Z,100.00
2022-11-03T02:03:57.781Z,100.00
2022-11-03T02:08:13.749Z,100.00
2022-11-03T02:12:17.650Z,100.00
2022-11-03T02:16:21.996Z,100.00
2022-11-03T02:20:29.837Z,100.00
2022-11-03T02:24:41.297Z,100.00
2022-11-03T02:28:43.477Z,100.00
2022-11-03T02:32:56.228Z,100.00
2022-11-03T02:37:23.791Z,100.00
2022-11-03T02:41:27.456Z,100.00
2022-11-03T02:45:30.366Z,100.00
2022-11-03T02:49:38.321Z,100.00
2022-11-03T02:53:52.093Z,100.00
2022-11-03T02:58:05.756Z,100.00
2022-11-03T03:02:16.850Z,100.00
2022-11-03T03:06:39.799Z,100.00
2022-11-03T03:10:47.633Z,100.00
2022-11-03T03:14:51.105Z,100.00
2022-11-03T03:19:07.919Z,100.00
2022-11-03T03:23:18.675Z,100.00
2022-11-03T03:27:25.172Z,100.00
2022-11-03T03:31:31.090Z,100.00
2022-11-03T03:35:34.825Z,100.00
2022-11-03T03:39:40.924Z,100.00
2022-11-03T03:43:43.168Z,100.00
2022-11-03T03:47:45.591Z,100.00
2022-11-03T03:51:49.404Z,100.00
2022-11-03T03:55:52.140Z,100.00
2022-11-03T03:59:54.222Z,100.00
2022-11-03T04:03:56.238Z,100.00
2022-11-03T04:07:58.540Z,100.00
2022-11-03T04:12:19.220Z,100.00
2022-11-03T04:16:39.599Z,100.00
2022-11-03T04:21:00.313Z,100.00
2022-11-03T04:25:02.343Z,100.00
2022-11-03T04:29:06.895Z,100.00
2022-11-03T04:33:18.506Z,100.00
2022-11-03T04:37:20.557Z,100.00
2022-11-03T04:41:31.629Z,100.00
2022-11-03T04:45:34.112Z,100.00
2022-11-03T04:49:36.515Z,100.00
2022-11-03T04:53:47.388Z,100.00
2022-11-03T04:57:56.819Z,100.00
2022-11-03T05:01:59.369Z,100.00
2022-11-03T05:06:11.160Z,100.00
2022-11-03T05:10:17.312Z,100.00
2022-11-03T05:14:26.209Z,100.00
2022-11-03T05:18:35.237Z,100.00
2022-11-03T05:22:37.654Z,100.00
2022-11-03T05:26:39.751Z,100.00
2022-11-03T05:30:41.739Z,100.00
2022-11-03T05:34:47.722Z,100.00
2022-11-03T05:38:54.093Z,100.00
2022-11-03T05:43:01.181Z,100.00
2022-11-03T05:47:13.078Z,100.00
2022-11-03T05:51:41.673Z,100.00
2022-11-03T05:55:44.033Z,100.00
2022-11-03T05:59:47.999Z,100.00
2022-11-03T06:03:50.325Z,100.00
2022-11-03T06:07:57.781Z,100.00
2022-11-03T06:12:02.490Z,100.00
2022-11-03T06:16:18.250Z,100.00
2022-11-03T06:20:22.122Z,100.00
2022-11-03T06:24:30.085Z,100.00
2022-11-03T06:28:36.843Z,100.00
2022-11-03T06:32:38.890Z,100.00
2022-11-03T06:36:40.888Z,100.00
2022-11-03T06:40:42.985Z,100.00
2022-11-03T06:44:50.197Z,100.00
2022-11-03T06:49:00.982Z,100.00
2022-11-03T06:53:04.527Z,100.00
2022-11-03T06:57:14.570Z,100.00
2022-11-03T07:01:21.157Z,100.00
2022-11-03T07:05:28.749Z,100.00
2022-11-03T07:09:30.823Z,100.00
2022-11-03T07:13:34.591Z,100.00
2022-11-03T07:17:36.821Z,100.00
2022-11-03T07:21:51.235Z,100.00
2022-11-03T07:25:57.590Z,100.00
2022-11-03T07:30:24.731Z,100.00
2022-11-03T07:34:32.562Z,100.00
2022-11-03T07:38:34.715Z,100.00
2022-11-03T07:42:36.758Z,100.00
2022-11-03T07:46:43.418Z,100.00
2022-11-03T07:50:46.171Z,100.00
2022-11-03T07:54:50.220Z,100.00
2022-11-03T07:59:07.141Z,100.00
2022-11-03T08:03:25.972Z,100.00
2022-11-03T08:07:28.306Z,100.00
2022-11-03T08:11:30.655Z,100.00
2022-11-03T08:15:32.690Z,100.00
2022-11-03T08:19:34.796Z,100.00
2022-11-03T08:23:36.971Z,100.00
2022-11-03T08:27:39.788Z,100.00
2022-11-03T08:31:41.798Z,100.00
2022-11-03T08:35:43.921Z,100.00
2022-11-03T08:39:45.958Z,100.00
2022-11-03T08:43:48.001Z,100.00
2022-11-03T08:47:50.093Z,100.00
2022-11-03T08:51:52.142Z,100.00
2022-11-03T08:55:54.737Z,98.42
2022-11-03T08:59:56.932Z,97.00
2022-11-03T09:03:58.994Z,98.01
2022-11-03T09:12:23.108Z,97.66
2022-11-03T09:16:25.121Z,97.38
2022-11-03T09:20:27.107Z,97.53
2022-11-03T09:24:30.340Z,97.20
2022-11-03T09:28:32.788Z,97.25
2022-11-03T09:32:35.216Z,97.57
2022-11-03T09:36:37.327Z,96.84
2022-11-03T09:40:39.388Z,95.11
2022-11-03T09:44:41.460Z,94.08
2022-11-03T09:48:43.783Z,93.41
2022-11-03T09:52:51.555Z,91.57
2022-11-03T09:56:54.010Z,91.12
2022-11-03T10:00:56.129Z,89.18
2022-11-03T10:05:04.413Z,86.72
2022-11-03T10:09:15.989Z,85.73
2022-11-03T10:13:34.412Z,86.09
2022-11-03T10:17:36.447Z,85.08
2022-11-03T10:21:39.449Z,83.49
2022-11-03T10:25:43.637Z,83.15
2022-11-03T10:29:50.838Z,83.28
2022-11-03T10:33:59.294Z,82.65
2022-11-03T10:38:24.361Z,81.17
2022-11-03T10:42:34.927Z,81.49
2022-11-03T10:46:55.007Z,81.17
2022-11-03T10:50:57.455Z,81.17
2022-11-03T10:54:59.739Z,81.40
2022-11-03T10:59:02.488Z,81.72
2022-11-03T11:03:06.576Z,81.01
2022-11-03T11:07:21.272Z,81.81
2022-11-03T11:11:24.225Z,80.34
2022-11-03T11:15:42.989Z,81.19
2022-11-03T11:20:22.023Z,81.19
2022-11-03T11:24:49.960Z,80.85
2022-11-03T11:29:10.286Z,80.96
2022-11-03T11:33:17.882Z,80.66
2022-11-03T11:37:19.803Z,79.93
2022-11-03T11:41:42.178Z,78.91
2022-11-03T11:46:21.816Z,78.62
2022-11-03T11:50:27.940Z,78.08
2022-11-03T11:54:30.009Z,78.45
2022-11-03T11:58:42.437Z,77.82
2022-11-03T12:02:47.034Z,78.15
2022-11-03T12:06:49.619Z,78.60
2022-11-03T12:10:53.699Z,78.87
2022-11-03T12:14:55.771Z,79.29
2022-11-03T12:19:17.955Z,79.51
2022-11-03T12:23:36.984Z,79.73
2022-11-03T12:27:39.026Z,80.06
2022-11-03T12:31:41.006Z,80.46
2022-11-03T12:35:43.418Z,80.82
2022-11-03T12:39:45.468Z,81.45
2022-11-03T12:43:52.287Z,81.54
2022-11-03T12:47:54.736Z,81.78
2022-11-03T12:51:56.912Z,81.46
2022-11-03T12:55:58.938Z,82.90
2022-11-03T13:00:00.992Z,83.93
2022-11-03T13:04:05.798Z,83.73
2022-11-03T13:08:07.896Z,84.53
2022-11-03T13:12:30.690Z,84.90
2022-11-03T13:16:32.743Z,85.13
2022-11-03T13:20:35.871Z,85.25
2022-11-03T13:24:38.435Z,84.31
2022-11-03T13:28:40.647Z,84.50
2022-11-03T13:32:42.648Z,85.00
2022-11-03T13:36:44.649Z,84.78
2022-11-03T13:41:08.007Z,85.81
2022-11-03T13:45:09.928Z,87.85
2022-11-03T14:06:40.938Z,90.96
2022-11-03T14:10:43.127Z,90.23
2022-11-03T14:14:45.275Z,90.89
2022-11-03T14:18:47.301Z,90.54
2022-11-03T14:22:49.296Z,90.39
2022-11-03T14:26:51.320Z,91.42
2022-11-03T14:30:55.405Z,92.21
2022-11-03T14:34:57.473Z,91.89
2022-11-03T14:38:59.612Z,92.42
2022-11-03T14:43:01.681Z,92.83
2022-11-03T14:47:05.819Z,92.38
2022-11-03T14:51:07.827Z,92.64
2022-11-03T14:55:09.938Z,92.93
2022-11-03T14:59:11.984Z,93.06
2022-11-03T15:03:14.103Z,93.62
2022-11-03T15:07:16.207Z,93.96
2022-11-03T15:11:18.258Z,94.26
2022-11-03T15:15:20.270Z,94.67
2022-11-03T15:19:22.257Z,94.94
2022-11-03T15:27:46.293Z,94.57
2022-11-03T15:31:48.748Z,95.10
2022-11-03T15:35:50.933Z,95.34
2022-11-03T15:39:57.174Z,95.21
2022-11-03T15:44:01.519Z,95.20
2022-11-03T15:48:04.303Z,95.14
2022-11-03T15:52:10.653Z,94.81
2022-11-03T15:56:12.662Z,95.05
2022-11-03T16:00:15.725Z,95.32
2022-11-03T16:04:17.930Z,95.56
2022-11-03T16:08:19.957Z,95.83
2022-11-03T16:12:23.985Z,95.77
2022-11-03T16:16:26.089Z,96.18
2022-11-03T16:20:30.648Z,96.48
2022-11-03T16:24:35.224Z,96.79
2022-11-03T16:28:37.998Z,96.89
2022-11-03T16:32:40.001Z,97.30
2022-11-03T16:36:42.042Z,98.08
2022-11-03T16:40:44.180Z,99.50
2022-11-03T16:44:46.215Z,99.89
2022-11-03T16:48:48.654Z,99.96
2022-11-03T16:52:50.903Z,100.00
2022-11-03T16:56:54.893Z,100.00
2022-11-03T17:00:57.317Z,100.00
2022-11-03T17:04:59.404Z,100.00
2022-11-03T17:09:01.642Z,100.00
2022-11-03T17:13:07.725Z,100.00
2022-11-03T17:17:12.122Z,100.00
2022-11-03T17:21:14.133Z,100.00
2022-11-03T17:25:16.355Z,100.00
2022-11-03T17:29:23.123Z,100.00
2022-11-03T17:33:25.187Z,100.00
2022-11-03T17:37:27.916Z,100.00
2022-11-03T17:41:30.043Z,100.00
2022-11-03T17:45:32.073Z,100.00
2022-11-03T17:49:34.091Z,100.00
2022-11-03T17:53:36.126Z,100.00
2022-11-03T17:57:38.153Z,100.00
2022-11-03T18:01:40.601Z,100.00
2022-11-03T18:05:42.809Z,100.00
2022-11-03T18:09:44.833Z,100.00
2022-11-03T18:13:48.197Z,100.00
2022-11-03T18:17:50.540Z,100.00
2022-11-03T18:21:52.655Z,100.00
2022-11-03T18:25:55.394Z,100.00
2022-11-03T18:29:57.441Z,100.00
2022-11-03T18:34:01.152Z,100.00
2022-11-03T18:38:06.854Z,100.00
2022-11-03T18:42:16.359Z,100.00
2022-11-03T18:46:18.406Z,100.00
2022-11-03T18:50:20.442Z,100.00
2022-11-03T18:54:24.247Z,100.00
2022-11-03T18:58:26.849Z,100.00
2022-11-03T19:02:28.920Z,100.00
2022-11-03T19:06:31.010Z,100.00
2022-11-03T19:10:33.028Z,100.00
2022-11-03T19:14:38.274Z,100.00
2022-11-03T19:18:42.838Z,100.00
2022-11-03T19:22:45.966Z,100.00
2022-11-03T19:27:02.150Z,100.00
2022-11-03T19:31:04.205Z,100.00
2022-11-03T19:35:14.273Z,100.00
2022-11-03T19:39:22.479Z,100.00
2022-11-03T19:43:24.456Z,100.00
2022-11-03T19:47:32.532Z,100.00
2022-11-03T19:51:38.647Z,100.00
2022-11-03T19:55:42.482Z,100.00
2022-11-03T19:59:45.140Z,100.00
2022-11-03T20:03:47.113Z,100.00
2022-11-03T20:07:49.120Z,100.00
2022-11-03T20:11:52.659Z,100.00
2022-11-03T20:16:00.734Z,100.00
2022-11-03T20:20:05.672Z,100.00
2022-11-03T20:24:08.263Z,100.00
2022-11-03T20:28:19.876Z,100.00
2022-11-03T20:32:21.902Z,100.00
2022-11-03T20:36:23.948Z,100.00
2022-11-03T20:40:31.004Z,100.00
2022-11-03T20:44:33.005Z,100.00
2022-11-03T20:48:34.979Z,100.00
2022-11-03T20:52:39.327Z,100.00
2022-11-03T20:56:41.524Z,100.00
2022-11-03T21:00:45.171Z,100.00
2022-11-03T21:04:47.333Z,100.00
2022-11-03T21:08:49.316Z,100.00
2022-11-03T21:12:52.586Z,100.00
2022-11-03T21:17:13.121Z,100.00
2022-11-03T21:21:20.741Z,100.00
2022-11-03T21:25:24.227Z,100.00
2022-11-03T21:29:53.326Z,100.00
2022-11-03T21:33:48.777Z,100.00
2022-11-03T21:37:50.784Z,100.00
2022-11-03T21:42:11.432Z,100.00
2022-11-03T21:46:13.489Z,100.00
2022-11-03T21:50:15.611Z,100.00
2022-11-03T21:54:17.655Z,100.00
2022-11-03T21:58:19.685Z,100.00
2022-11-03T22:02:21.778Z,100.00
2022-11-03T22:06:23.897Z,100.00
2022-11-03T22:10:25.959Z,100.00
2022-11-03T22:14:47.909Z,100.00
2022-11-03T22:18:49.874Z,100.00
2022-11-03T22:23:10.494Z,100.00
2022-11-03T22:27:14.099Z,100.00
2022-11-03T22:31:34.747Z,100.00
2022-11-03T22:35:55.518Z,100.00
2022-11-03T22:40:16.191Z,100.00
2022-11-03T22:44:36.796Z,100.00
2022-11-03T22:48:39.003Z,100.00
2022-11-03T22:52:41.082Z,100.00
2022-11-03T22:56:43.303Z,100.00
2022-11-03T23:00:47.281Z,100.00
2022-11-03T23:04:49.367Z,100.00
2022-11-03T23:08:54.393Z,100.00
2022-11-03T23:12:59.439Z,100.00
2022-11-03T23:17:02.567Z,100.00
2022-11-03T23:21:07.380Z,100.00
2022-11-03T23:25:09.414Z,100.00
2022-11-03T23:29:15.781Z,100.00
2022-11-03T23:33:17.769Z,100.00
2022-11-03T23:37:19.830Z,100.00
2022-11-03T23:41:22.530Z,100.00
2022-11-03T23:45:43.413Z,100.00
2022-11-03T23:49:45.426Z,100.00
2022-11-03T23:53:48.238Z,100.00
2022-11-03T23:58:09.203Z,100.00
